createdAt,value
2023-02-13T00:01:26.560Z,10.43
2023-02-13T00:03:54.927Z,11.32
2023-02-13T00:06:23.268Z,11.98
2023-02-13T00:08:52.786Z,11.70
2023-02-13T00:11:21.091Z,15.48
2023-02-13T00:13:49.317Z,14.40
2023-02-13T00:16:17.591Z,16.02
2023-02-13T00:18:45.805Z,15.63
2023-02-13T00:21:17.405Z,16.50
2023-02-13T00:23:45.651Z,18.02
2023-02-13T00:26:17.036Z,15.85
2023-02-13T00:28:46.498Z,15.80
2023-02-13T00:31:19.910Z,14.60
2023-02-13T00:33:49.352Z,17.70
2023-02-13T00:36:20.147Z,17.67
2023-02-13T00:38:48.773Z,17.45
2023-02-13T00:41:21.164Z,15.27
2023-02-13T00:43:50.202Z,16.65
2023-02-13T00:46:18.953Z,17.02
2023-02-13T00:48:47.312Z,17.42
2023-02-13T00:51:17.385Z,18.38
2023-02-13T00:53:45.582Z,17.77
2023-02-13T00:56:13.801Z,17.08
2023-02-13T00:58:47.529Z,18.80
2023-02-13T01:01:15.995Z,16.92
2023-02-13T01:03:44.302Z,18.48
2023-02-13T01:06:12.507Z,19.30
2023-02-13T01:08:41.559Z,18.38
2023-02-13T01:11:10.822Z,19.08
2023-02-13T01:13:39.298Z,15.30
2023-02-13T01:16:09.455Z,19.73
2023-02-13T01:18:38.085Z,19.92
2023-02-13T01:21:10.130Z,22.52
2023-02-13T01:23:39.677Z,17.48
2023-02-13T01:26:09.826Z,24.13
2023-02-13T01:28:38.083Z,18.95
2023-02-13T01:31:07.986Z,19.42
2023-02-13T01:33:36.702Z,21.00
2023-02-13T01:36:08.326Z,21.42
2023-02-13T01:38:38.780Z,20.85
2023-02-13T01:41:09.973Z,17.42
2023-02-13T01:43:47.757Z,21.33
2023-02-13T01:46:20.339Z,21.30
2023-02-13T01:48:50.506Z,19.25
2023-02-13T01:51:22.235Z,21.17
2023-02-13T01:53:54.591Z,20.20
2023-02-13T01:56:29.472Z,21.20
2023-02-13T01:59:01.775Z,19.55
2023-02-13T02:01:35.177Z,19.70
2023-02-13T02:04:11.201Z,18.65
2023-02-13T02:06:43.133Z,18.73
2023-02-13T02:09:15.075Z,20.02
2023-02-13T02:12:00.186Z,13.82
2023-02-13T02:14:29.196Z,14.73
2023-02-13T02:16:59.919Z,13.93
2023-02-13T02:19:37.735Z,10.15
2023-02-13T02:22:38.620Z,9.93
2023-02-13T02:25:55.308Z,14.85
2023-02-13T02:29:01.852Z,9.18
2023-02-13T02:32:17.655Z,5.68
2023-02-13T02:34:57.445Z,8.95
2023-02-13T02:37:44.818Z,8.27
2023-02-13T02:40:25.236Z,10.60
2023-02-13T02:43:10.661Z,6.90
2023-02-13T02:45:45.713Z,9.52
2023-02-13T02:48:47.034Z,8.55
2023-02-13T02:51:23.113Z,12.38
2023-02-13T02:54:24.355Z,13.07
2023-02-13T02:56:55.532Z,10.80
2023-02-13T02:59:48.653Z,11.98
2023-02-13T03:02:43.940Z,14.52
2023-02-13T03:05:34.270Z,12.65
2023-02-13T03:08:05.424Z,13.80
2023-02-13T03:10:55.340Z,11.02
2023-02-13T03:13:43.171Z,15.63
2023-02-13T03:16:35.537Z,15.82
2023-02-13T03:19:21.546Z,17.90
2023-02-13T03:22:11.961Z,16.25
2023-02-13T03:24:48.768Z,14.40
2023-02-13T03:27:41.845Z,14.45
2023-02-13T03:30:20.269Z,13.55
2023-02-13T03:32:55.958Z,6.32
2023-02-13T03:35:51.676Z,8.93
2023-02-13T03:38:25.447Z,14.73
2023-02-13T03:41:19.857Z,13.68
2023-02-13T03:44:09.374Z,13.27
2023-02-13T03:46:41.854Z,15.23
2023-02-13T03:49:36.092Z,17.58
2023-02-13T03:52:07.574Z,13.85
2023-02-13T03:55:00.400Z,15.07
2023-02-13T03:57:50.270Z,13.07
2023-02-13T04:00:20.654Z,15.30
2023-02-13T04:03:02.135Z,13.13
2023-02-13T04:05:34.119Z,17.60
2023-02-13T04:08:02.368Z,15.57
2023-02-13T04:10:35.518Z,14.73
2023-02-13T04:13:13.285Z,15.05
2023-02-13T04:15:47.035Z,11.00
2023-02-13T04:18:19.284Z,14.48
2023-02-13T04:20:47.899Z,15.68
2023-02-13T04:23:16.716Z,15.38
2023-02-13T04:25:47.198Z,15.43
2023-02-13T04:28:17.807Z,16.42
2023-02-13T04:30:46.346Z,14.57
2023-02-13T04:33:14.729Z,17.08
2023-02-13T04:35:45.201Z,15.55
2023-02-13T04:38:13.389Z,15.55
2023-02-13T04:40:41.633Z,17.98
2023-02-13T04:43:09.796Z,13.88
2023-02-13T04:45:39.367Z,15.73
2023-02-13T04:48:07.544Z,15.07
2023-02-13T04:50:36.208Z,14.88
2023-02-13T04:53:04.364Z,15.40
2023-02-13T04:55:32.742Z,14.40
2023-02-13T04:58:02.825Z,15.63
2023-02-13T05:00:34.088Z,11.10
2023-02-13T05:03:07.037Z,16.80
2023-02-13T05:05:36.134Z,12.98
2023-02-13T05:08:04.523Z,14.55
2023-02-13T05:10:32.980Z,16.15
2023-02-13T05:13:01.390Z,15.57
2023-02-13T05:15:29.853Z,14.98
2023-02-13T05:17:58.073Z,12.77
2023-02-13T05:20:27.656Z,15.48
2023-02-13T05:23:13.626Z,14.98
2023-02-13T05:25:43.723Z,15.93
2023-02-13T05:28:25.806Z,15.57
2023-02-13T05:30:54.379Z,14.60
2023-02-13T05:33:22.614Z,16.17
2023-02-13T05:35:52.354Z,18.52
2023-02-13T05:38:20.516Z,15.07
2023-02-13T05:40:48.670Z,14.98
2023-02-13T05:43:16.859Z,14.57
2023-02-13T05:45:45.000Z,14.73
2023-02-13T05:48:13.344Z,16.20
2023-02-13T05:50:41.541Z,14.05
2023-02-13T05:53:11.085Z,14.50
2023-02-13T05:55:40.468Z,13.95
2023-02-13T05:58:09.481Z,14.50
2023-02-13T06:00:37.754Z,15.90
2023-02-13T06:03:06.103Z,13.65
2023-02-13T06:05:34.268Z,14.02
2023-02-13T06:08:04.411Z,15.23
2023-02-13T06:10:34.348Z,13.18
2023-02-13T06:13:05.279Z,14.50
2023-02-13T06:15:33.705Z,16.40
2023-02-13T06:18:02.169Z,14.82
2023-02-13T06:20:31.998Z,12.05
2023-02-13T06:23:00.214Z,13.68
2023-02-13T06:25:29.984Z,11.77
2023-02-13T06:27:59.681Z,11.70
2023-02-13T06:30:27.996Z,12.50
2023-02-13T06:32:56.185Z,11.90
2023-02-13T06:35:24.397Z,11.80
2023-02-13T06:37:52.736Z,12.82
2023-02-13T06:40:21.153Z,12.68
2023-02-13T06:42:49.300Z,12.32
2023-02-13T06:45:18.992Z,12.30
2023-02-13T06:47:48.883Z,12.57
2023-02-13T06:50:18.695Z,11.60
2023-02-13T06:52:51.736Z,11.70
2023-02-13T06:55:20.741Z,12.45
2023-02-13T06:57:49.044Z,12.20
2023-02-13T07:00:20.205Z,13.80
2023-02-13T07:02:48.927Z,12.68
2023-02-13T07:05:17.384Z,12.38
2023-02-13T07:07:45.584Z,12.55
2023-02-13T07:10:15.365Z,11.20
2023-02-13T07:12:45.777Z,12.95
2023-02-13T07:15:18.880Z,12.65
2023-02-13T07:17:47.066Z,11.60
2023-02-13T07:20:17.855Z,12.00
2023-02-13T07:22:46.024Z,14.52
2023-02-13T07:25:14.353Z,11.23
2023-02-13T07:27:42.543Z,12.20
2023-02-13T07:30:11.492Z,13.07
2023-02-13T07:32:41.057Z,11.95
2023-02-13T07:35:09.505Z,13.95
2023-02-13T07:37:37.663Z,10.18
2023-02-13T07:40:06.847Z,12.07
2023-02-13T07:42:35.702Z,16.10
2023-02-13T07:45:05.584Z,16.50
2023-02-13T07:47:34.821Z,15.40
2023-02-13T07:50:07.087Z,13.07
2023-02-13T07:52:41.361Z,13.20
2023-02-13T07:55:11.480Z,13.18
2023-02-13T07:57:39.723Z,13.80
2023-02-13T08:00:09.362Z,18.80
2023-02-13T08:02:40.327Z,12.73
2023-02-13T08:05:10.372Z,12.77
2023-02-13T08:07:38.612Z,13.02
2023-02-13T08:10:27.462Z,12.52
2023-02-13T08:12:56.162Z,12.82
2023-02-13T08:15:24.347Z,19.05
2023-02-13T08:17:53.102Z,14.90
2023-02-13T08:20:23.986Z,13.57
2023-02-13T08:22:52.171Z,13.60
2023-02-13T08:25:20.566Z,13.93
2023-02-13T08:27:48.851Z,14.93
2023-02-13T08:30:17.610Z,14.50
2023-02-13T08:32:54.380Z,15.15
2023-02-13T08:35:27.011Z,16.42
2023-02-13T08:37:57.727Z,11.73
2023-02-13T08:40:26.100Z,13.98
2023-02-13T08:42:55.861Z,11.85
2023-02-13T08:45:25.103Z,14.55
2023-02-13T08:47:56.388Z,16.02
2023-02-13T08:50:26.510Z,19.35
2023-02-13T08:52:57.344Z,14.98
2023-02-13T08:55:25.511Z,10.95
2023-02-13T08:57:53.680Z,15.15
2023-02-13T09:00:22.723Z,16.60
2023-02-13T09:02:50.916Z,15.80
2023-02-13T09:05:19.098Z,14.80
2023-02-13T09:07:48.642Z,14.85
2023-02-13T09:10:17.195Z,12.73
2023-02-13T09:12:53.455Z,14.50
2023-02-13T09:15:21.821Z,14.68
2023-02-13T09:17:55.373Z,11.73
2023-02-13T09:20:23.661Z,17.10
2023-02-13T09:22:53.193Z,13.05
2023-02-13T09:25:21.694Z,15.95
2023-02-13T09:27:49.922Z,14.35
2023-02-13T09:30:23.483Z,13.75
2023-02-13T09:32:52.199Z,12.73
2023-02-13T09:35:20.997Z,14.95
2023-02-13T09:37:49.598Z,11.82
2023-02-13T09:40:24.318Z,12.43
2023-02-13T09:42:53.759Z,9.13
2023-02-13T09:45:23.008Z,13.20
2023-02-13T09:47:54.362Z,18.40
2023-02-13T09:50:27.883Z,11.80
2023-02-13T09:53:00.376Z,15.05
2023-02-13T09:55:37.276Z,17.60
2023-02-13T09:58:16.159Z,14.63
2023-02-13T10:00:50.834Z,10.73
2023-02-13T10:03:30.641Z,13.07
2023-02-13T10:06:09.585Z,14.60
2023-02-13T10:08:58.679Z,12.65
2023-02-13T10:11:42.687Z,10.98
2023-02-13T10:14:18.603Z,12.27
2023-02-13T10:16:51.737Z,14.35
2023-02-13T10:19:37.396Z,13.68
2023-02-13T10:22:11.566Z,12.90
2023-02-13T10:24:44.975Z,13.95
2023-02-13T10:27:23.930Z,14.35
2023-02-13T10:30:06.761Z,14.30
2023-02-13T10:32:47.498Z,16.08
2023-02-13T10:35:23.448Z,12.23
2023-02-13T10:37:55.277Z,8.45
2023-02-13T10:40:29.741Z,16.42
2023-02-13T10:43:09.404Z,13.52
2023-02-13T10:46:04.456Z,11.98
2023-02-13T10:48:47.030Z,11.13
2023-02-13T10:51:25.600Z,12.15
2023-02-13T10:54:11.119Z,21.02
2023-02-13T10:56:42.275Z,12.55
2023-02-13T10:59:36.189Z,12.50
2023-02-13T11:02:18.908Z,12.10
2023-02-13T11:04:47.882Z,11.05
2023-02-13T11:07:19.401Z,9.85
2023-02-13T11:09:50.232Z,10.82
2023-02-13T11:12:26.127Z,10.45
2023-02-13T11:15:00.745Z,11.55
2023-02-13T11:17:32.572Z,12.48
2023-02-13T11:20:02.650Z,9.98
2023-02-13T11:22:36.294Z,11.38
2023-02-13T11:25:07.931Z,10.50
2023-02-13T11:27:40.794Z,7.78
2023-02-13T11:30:32.747Z,9.07
2023-02-13T11:33:03.275Z,8.98
2023-02-13T11:35:33.809Z,8.88
2023-02-13T11:38:21.958Z,10.00
2023-02-13T11:40:55.500Z,8.95
2023-02-13T11:43:29.145Z,8.95
2023-02-13T11:46:19.091Z,9.85
2023-02-13T11:49:02.227Z,7.85
2023-02-13T11:51:40.961Z,7.55
2023-02-13T11:54:32.324Z,9.50
2023-02-13T11:57:05.188Z,7.10
2023-02-13T11:59:41.433Z,6.47
2023-02-13T12:02:20.571Z,5.35
2023-02-13T12:04:50.818Z,4.90
2023-02-13T12:07:22.952Z,4.75
2023-02-13T12:09:58.567Z,4.47
2023-02-13T12:12:33.171Z,4.68
2023-02-13T12:15:05.259Z,3.95
2023-02-13T12:17:36.355Z,4.57
2023-02-13T12:20:05.081Z,5.05
2023-02-13T12:22:41.609Z,5.28
2023-02-13T12:25:45.424Z,5.90
2023-02-13T12:28:17.361Z,4.07
2023-02-13T12:31:08.549Z,4.18
2023-02-13T12:34:10.855Z,4.47
2023-02-13T12:36:48.186Z,4.50
2023-02-13T12:39:32.572Z,4.03
2023-02-13T12:42:15.301Z,4.25
2023-02-13T12:45:06.445Z,4.85
2023-02-13T12:47:41.165Z,5.57
2023-02-13T12:50:42.029Z,5.70
2023-02-13T12:53:33.061Z,4.80
2023-02-13T12:56:21.027Z,6.35
2023-02-13T12:59:02.383Z,5.75
2023-02-13T13:01:55.262Z,4.95
2023-02-13T13:04:36.587Z,5.95
2023-02-13T13:07:30.159Z,4.70
2023-02-13T13:10:16.014Z,6.10
2023-02-13T13:12:52.164Z,6.15
2023-02-13T13:15:30.845Z,4.50
2023-02-13T13:18:14.234Z,4.25
2023-02-13T13:20:58.270Z,4.60
2023-02-13T13:23:33.514Z,3.78
2023-02-13T13:26:12.569Z,4.50
2023-02-13T13:28:43.600Z,5.85
2023-02-13T13:31:15.221Z,6.22
2023-02-13T13:33:48.239Z,4.78
2023-02-13T13:36:24.964Z,4.93
2023-02-13T13:39:01.832Z,4.68
2023-02-13T13:41:40.015Z,5.60
2023-02-13T13:44:22.680Z,5.70
2023-02-13T13:47:00.081Z,5.65
2023-02-13T13:49:37.063Z,6.43
2023-02-13T13:52:20.566Z,5.43
2023-02-13T13:54:51.579Z,5.05
2023-02-13T13:57:21.868Z,6.40
2023-02-13T14:00:25.740Z,5.43
2023-02-13T14:03:29.587Z,6.22
2023-02-13T14:06:07.324Z,6.40
2023-02-13T14:09:29.259Z,6.13
2023-02-13T14:11:58.489Z,7.80
2023-02-13T14:14:55.491Z,7.20
2023-02-13T14:17:51.297Z,7.25
2023-02-13T14:20:32.227Z,6.82
2023-02-13T14:23:09.587Z,5.72
2023-02-13T14:25:38.820Z,7.30
2023-02-13T14:28:07.585Z,7.13
2023-02-13T14:30:40.382Z,7.68
2023-02-13T14:33:22.965Z,6.80
2023-02-13T14:36:02.020Z,6.70
2023-02-13T14:38:36.182Z,7.38
2023-02-13T14:41:07.232Z,9.52
2023-02-13T14:43:52.269Z,7.85
2023-02-13T14:46:31.043Z,7.05
2023-02-13T14:49:02.751Z,7.50
2023-02-13T14:51:36.350Z,8.05
2023-02-13T14:54:17.460Z,8.93
2023-02-13T14:56:48.293Z,6.78
2023-02-13T14:59:19.822Z,12.15
2023-02-13T15:01:53.376Z,8.70
2023-02-13T15:04:31.657Z,15.32
2023-02-13T15:07:02.458Z,7.25
2023-02-13T15:09:37.558Z,9.25
2023-02-13T15:12:06.281Z,10.02
2023-02-13T15:14:36.066Z,9.90
2023-02-13T15:17:12.934Z,10.65
2023-02-13T15:19:46.598Z,17.48
2023-02-13T15:22:21.295Z,13.27
2023-02-13T15:24:51.025Z,10.32
2023-02-13T15:27:23.653Z,4.63
2023-02-13T15:29:57.365Z,5.57
2023-02-13T15:32:31.468Z,7.60
2023-02-13T15:34:59.801Z,7.68
2023-02-13T15:37:30.779Z,5.43
2023-02-13T15:40:17.474Z,5.18
2023-02-13T15:42:46.520Z,4.57
2023-02-13T15:45:19.070Z,10.02
2023-02-13T15:47:49.398Z,8.63
2023-02-13T15:50:25.785Z,6.18
2023-02-13T15:52:55.924Z,4.80
2023-02-13T15:55:26.470Z,4.35
2023-02-13T15:57:57.020Z,4.10
2023-02-13T16:00:28.221Z,2.72
2023-02-13T16:03:01.256Z,2.20
2023-02-13T16:05:40.113Z,3.53
2023-02-13T16:08:45.276Z,2.53
2023-02-13T16:11:29.896Z,3.53
2023-02-13T16:14:17.515Z,3.80
2023-02-13T16:16:50.853Z,2.53
2023-02-13T16:19:25.635Z,6.07
2023-02-13T16:21:55.803Z,5.38
2023-02-13T16:24:25.136Z,4.22
2023-02-13T16:26:53.784Z,3.13
2023-02-13T16:29:25.804Z,3.42
2023-02-13T16:31:55.304Z,2.17
2023-02-13T16:34:27.540Z,2.05
2023-02-13T16:36:57.508Z,1.75
2023-02-13T16:39:28.905Z,3.58
2023-02-13T16:41:57.494Z,3.25
2023-02-13T16:44:28.760Z,2.28
2023-02-13T16:46:58.993Z,2.20
2023-02-13T16:49:30.630Z,2.88
2023-02-13T16:52:02.126Z,5.78
2023-02-13T16:54:38.820Z,5.75
2023-02-13T16:57:24.030Z,3.33
2023-02-13T16:59:56.586Z,4.40
2023-02-13T17:02:26.945Z,3.42
2023-02-13T17:04:59.725Z,3.65
2023-02-13T17:07:29.286Z,3.10
2023-02-13T17:09:59.938Z,3.08
2023-02-13T17:12:29.908Z,4.13
2023-02-13T17:14:59.827Z,10.55
2023-02-13T17:17:30.018Z,6.93
2023-02-13T17:19:59.957Z,4.40
2023-02-13T17:22:35.606Z,4.07
2023-02-13T17:25:07.406Z,7.40
2023-02-13T17:27:35.993Z,6.53
2023-02-13T17:30:04.796Z,5.85
2023-02-13T17:32:32.969Z,7.82
2023-02-13T17:35:02.559Z,4.85
2023-02-13T17:37:32.749Z,10.85
2023-02-13T17:40:00.917Z,8.05
2023-02-13T17:42:30.692Z,7.85
2023-02-13T17:45:00.083Z,7.13
2023-02-13T17:47:30.237Z,5.88
2023-02-13T17:50:08.764Z,4.57
2023-02-13T17:52:40.165Z,5.45
2023-02-13T17:55:17.114Z,3.00
2023-02-13T17:57:45.445Z,4.43
2023-02-13T18:00:14.856Z,4.93
2023-02-13T18:02:44.216Z,2.88
2023-02-13T18:05:12.927Z,3.40
2023-02-13T18:07:43.151Z,4.05
2023-02-13T18:10:15.912Z,4.28
2023-02-13T18:12:44.762Z,4.57
2023-02-13T18:15:13.379Z,4.43
2023-02-13T18:17:42.089Z,4.10
2023-02-13T18:20:13.052Z,5.78
2023-02-13T18:22:43.006Z,5.03
2023-02-13T18:25:12.405Z,4.38
2023-02-13T18:27:40.921Z,5.13
2023-02-13T18:30:10.229Z,5.90
2023-02-13T18:32:38.564Z,5.75
2023-02-13T18:35:08.070Z,4.88
2023-02-13T18:37:36.344Z,6.20
2023-02-13T18:40:06.835Z,6.63
2023-02-13T18:42:36.947Z,6.45
2023-02-13T18:45:05.792Z,9.55
2023-02-13T18:47:34.065Z,7.47
2023-02-13T18:50:02.249Z,7.32
2023-02-13T18:52:30.467Z,7.95
2023-02-13T18:54:58.666Z,7.70
2023-02-13T18:57:29.379Z,7.50
2023-02-13T18:59:58.767Z,7.20
2023-02-13T19:02:27.172Z,8.90
2023-02-13T19:04:55.478Z,8.70
2023-02-13T19:07:23.634Z,8.60
2023-02-13T19:09:51.772Z,8.07
2023-02-13T19:12:20.006Z,8.35
2023-02-13T19:14:49.522Z,11.80
2023-02-13T19:17:17.813Z,9.75
2023-02-13T19:19:46.677Z,9.27
2023-02-13T19:22:14.911Z,8.32
2023-02-13T19:24:43.057Z,8.70
2023-02-13T19:27:11.337Z,9.43
2023-02-13T19:29:39.498Z,8.00
2023-02-13T19:32:10.021Z,8.38
2023-02-13T19:34:41.080Z,9.10
2023-02-13T19:37:12.871Z,8.63
2023-02-13T19:39:41.188Z,7.95
2023-02-13T19:42:09.387Z,8.40
2023-02-13T19:44:37.643Z,8.38
2023-02-13T19:47:05.860Z,8.15
2023-02-13T19:49:35.397Z,7.13
2023-02-13T19:52:04.404Z,5.75
2023-02-13T19:54:32.670Z,7.10
2023-02-13T19:57:05.635Z,8.52
2023-02-13T19:59:34.091Z,6.93
2023-02-13T20:02:02.344Z,8.65
2023-02-13T20:04:32.169Z,9.07
2023-02-13T20:07:01.713Z,7.00
2023-02-13T20:09:30.021Z,8.07
2023-02-13T20:11:58.638Z,8.50
2023-02-13T20:14:26.806Z,7.95
2023-02-13T20:16:58.206Z,6.95
2023-02-13T20:19:27.752Z,6.68
2023-02-13T20:21:58.290Z,6.10
2023-02-13T20:24:28.477Z,7.45
2023-02-13T20:26:58.875Z,6.28
2023-02-13T20:29:27.140Z,6.50
2023-02-13T20:31:55.439Z,6.60
2023-02-13T20:34:29.510Z,6.78
2023-02-13T20:37:00.937Z,7.07
2023-02-13T20:39:30.989Z,6.97
2023-02-13T20:41:59.269Z,5.95
2023-02-13T20:44:28.132Z,5.28
2023-02-13T20:46:56.304Z,5.60
2023-02-13T20:49:26.596Z,4.80
2023-02-13T20:51:55.064Z,4.07
2023-02-13T20:54:23.315Z,5.13
2023-02-13T20:56:52.854Z,4.82
2023-02-13T20:59:20.992Z,5.63
2023-02-13T21:01:49.165Z,7.00
2023-02-13T21:04:19.281Z,7.65
2023-02-13T21:06:48.701Z,7.78
2023-02-13T21:09:16.979Z,8.65
2023-02-13T21:11:48.205Z,8.98
2023-02-13T21:14:18.942Z,9.32
2023-02-13T21:16:47.187Z,8.93
2023-02-13T21:19:20.321Z,9.90
2023-02-13T21:21:49.046Z,8.85
2023-02-13T21:24:19.902Z,9.55
2023-02-13T21:26:49.360Z,8.82
2023-02-13T21:29:19.242Z,9.38
2023-02-13T21:31:48.645Z,12.23
2023-02-13T21:34:18.860Z,10.25
2023-02-13T21:36:47.662Z,11.02
2023-02-13T21:39:16.358Z,11.07
2023-02-13T21:41:47.090Z,11.20
2023-02-13T21:44:16.800Z,11.90
2023-02-13T21:46:47.146Z,10.88
2023-02-13T21:49:17.009Z,11.88
2023-02-13T21:51:45.827Z,11.23
2023-02-13T21:54:14.447Z,10.13
2023-02-13T21:56:43.843Z,10.02
2023-02-13T21:59:15.451Z,9.98
2023-02-13T22:01:50.064Z,10.15
2023-02-13T22:04:19.223Z,12.50
2023-02-13T22:06:49.658Z,8.65
2023-02-13T22:09:19.979Z,9.32
2023-02-13T22:11:49.501Z,10.52
2023-02-13T22:14:19.202Z,9.60
2023-02-13T22:16:51.215Z,12.98
2023-02-13T22:19:20.539Z,10.75
2023-02-13T22:21:48.744Z,10.38
2023-02-13T22:24:17.454Z,9.77
2023-02-13T22:26:46.444Z,10.32
2023-02-13T22:29:16.373Z,11.02
2023-02-13T22:31:44.989Z,10.55
2023-02-13T22:34:15.553Z,10.52
2023-02-13T22:36:43.853Z,11.80
2023-02-13T22:39:12.882Z,10.68
2023-02-13T22:41:41.051Z,10.63
2023-02-13T22:44:09.276Z,10.00
2023-02-13T22:46:37.501Z,10.93
2023-02-13T22:49:05.843Z,10.05
2023-02-13T22:51:37.092Z,8.80
2023-02-13T22:54:07.695Z,8.75
2023-02-13T22:56:36.076Z,13.43
2023-02-13T22:59:04.510Z,9.25
2023-02-13T23:01:32.685Z,9.90
2023-02-13T23:04:00.928Z,11.70
2023-02-13T23:06:29.208Z,9.18
2023-02-13T23:08:58.750Z,9.77
2023-02-13T23:11:46.007Z,9.55
2023-02-13T23:14:15.086Z,9.65
2023-02-13T23:17:01.850Z,11.80
2023-02-13T23:19:30.693Z,10.65
2023-02-13T23:21:59.641Z,8.23
2023-02-13T23:24:30.086Z,9.50
2023-02-13T23:26:58.366Z,10.13
2023-02-13T23:29:26.786Z,10.52
2023-02-13T23:31:56.838Z,11.32
2023-02-13T23:34:25.111Z,9.98
2023-02-13T23:36:53.281Z,9.90
2023-02-13T23:39:24.248Z,10.55
2023-02-13T23:41:54.040Z,9.90
2023-02-13T23:44:23.359Z,9.85
2023-02-13T23:46:51.483Z,10.25
2023-02-13T23:49:20.894Z,9.43
2023-02-13T23:51:49.161Z,9.73
2023-02-13T23:54:18.067Z,12.05
2023-02-13T23:56:46.615Z,11.32
2023-02-13T23:59:17.477Z,10.05
